createdAt,value
2019-05-18T05:11:44.907Z,100.00
2019-05-18T05:21:45.720Z,100.00
2019-05-18T05:31:42.923Z,96.15
2019-05-18T05:41:42.256Z,93.85
2019-05-18T05:51:44.481Z,93.14
2019-05-18T06:01:41.799Z,92.35
2019-05-18T06:11:44.833Z,91.77
2019-05-18T06:21:42.544Z,89.87
2019-05-18T06:31:42.407Z,85.52
2019-05-18T06:41:42.582Z,81.67
2019-05-18T06:51:42.447Z,83.38
2019-05-18T07:01:42.522Z,77.85
2019-05-18T07:11:42.202Z,76.51
2019-05-18T07:21:42.465Z,74.22
2019-05-18T07:31:42.437Z,68.57
2019-05-18T07:41:46.641Z,70.95
2019-05-18T07:51:42.465Z,68.74
2019-05-18T08:01:44.798Z,65.18
2019-05-18T08:11:42.666Z,68.24
2019-05-18T08:21:52.678Z,65.54
2019-05-18T08:31:44.901Z,66.02
2019-05-18T08:41:42.977Z,58.85
2019-05-18T08:51:42.599Z,60.29
2019-05-18T09:01:42.343Z,60.75
2019-05-18T09:11:42.451Z,59.25
2019-05-18T09:21:42.632Z,58.46
2019-05-18T09:31:42.706Z,56.22
2019-05-18T09:41:42.628Z,54.53
2019-05-18T09:51:42.374Z,55.90
2019-05-18T10:01:42.654Z,50.54
2019-05-18T10:11:44.476Z,52.40
2019-05-18T10:21:42.808Z,55.47
2019-05-18T10:31:42.687Z,49.86
2019-05-18T10:41:44.701Z,50.60
2019-05-18T10:51:42.348Z,49.73
2019-05-18T11:01:43.986Z,50.10
2019-05-18T11:11:41.844Z,45.75
2019-05-18T11:21:41.802Z,49.80
2019-05-18T11:31:42.179Z,47.45
2019-05-18T11:41:43.291Z,42.82
2019-05-18T11:51:41.914Z,39.93
2019-05-18T12:01:44.243Z,41.24
2019-05-18T12:11:46.268Z,48.03
2019-05-18T12:21:42.134Z,45.50
2019-05-18T12:31:42.252Z,46.69
2019-05-18T12:41:42.146Z,47.12
2019-05-18T12:51:41.932Z,45.46
2019-05-18T13:01:45.800Z,42.44
2019-05-18T13:11:42.804Z,42.41
2019-05-18T13:21:41.973Z,46.65
2019-05-18T13:31:42.014Z,46.93
2019-05-18T13:41:42.707Z,44.86
2019-05-18T13:51:44.633Z,43.55
2019-05-18T14:01:44.846Z,41.63
2019-05-18T14:11:42.101Z,48.89
2019-05-18T14:21:42.699Z,45.35
2019-05-18T14:31:42.339Z,46.02
2019-05-18T14:41:43.964Z,46.38
2019-05-18T14:51:43.660Z,45.70
2019-05-18T15:01:43.997Z,45.03
2019-05-18T15:11:42.434Z,44.92
2019-05-18T15:21:42.407Z,43.25
2019-05-18T15:31:42.271Z,44.46
2019-05-18T15:41:42.247Z,44.11
2019-05-18T15:51:42.311Z,42.11
2019-05-18T16:01:41.992Z,43.83
2019-05-18T16:11:42.758Z,45.91
2019-05-18T16:21:42.822Z,41.92
2019-05-18T16:31:41.153Z,42.97
2019-05-18T16:41:42.979Z,43.64
2019-05-18T16:51:44.689Z,45.16
2019-05-18T17:01:42.819Z,48.23
2019-05-18T17:11:42.790Z,46.40
2019-05-18T17:21:43.187Z,47.83
2019-05-18T17:31:44.599Z,45.03
2019-05-18T17:41:45.079Z,46.46
2019-05-18T17:51:42.965Z,44.77
2019-05-18T18:01:43.160Z,47.59
2019-05-18T18:11:43.011Z,48.02
2019-05-18T18:21:42.466Z,50.83
2019-05-18T18:31:44.893Z,52.42
2019-05-18T18:41:43.010Z,55.41
2019-05-18T18:51:43.089Z,59.25
2019-05-18T19:01:44.177Z,64.33
